sensor_id;sensor_type;location;lat;lon;timestamp;pressure;altitude;pressure_sealevel;temperature;humidity
51053;BME280;37093;37.716;-122.060;2023-02-21T00:02:14;100147.26;;;23.50;20.80
51053;BME280;37093;37.716;-122.060;2023-02-21T00:04:42;100144.71;;;23.57;20.48
51053;BME280;37093;37.716;-122.060;2023-02-21T00:07:10;100142.59;;;23.38;20.12
51053;BME280;37093;37.716;-122.060;2023-02-21T00:09:39;100140.36;;;23.34;20.10
51053;BME280;37093;37.716;-122.060;2023-02-21T00:12:07;100134.71;;;23.65;20.09
51053;BME280;37093;37.716;-122.060;2023-02-21T00:14:37;100137.22;;;23.53;19.72
51053;BME280;37093;37.716;-122.060;2023-02-21T00:17:05;100136.23;;;23.39;19.63
51053;BME280;37093;37.716;-122.060;2023-02-21T00:19:33;100127.49;;;23.31;20.26
51053;BME280;37093;37.716;-122.060;2023-02-21T00:22:02;100119.28;;;23.20;19.46
51053;BME280;37093;37.716;-122.060;2023-02-21T00:24:30;100115.26;;;23.29;19.18
51053;BME280;37093;37.716;-122.060;2023-02-21T00:26:59;100115.16;;;23.06;20.26
51053;BME280;37093;37.716;-122.060;2023-02-21T00:29:27;100118.26;;;23.29;20.25
51053;BME280;37093;37.716;-122.060;2023-02-21T00:31:55;100123.24;;;23.62;18.93
51053;BME280;37093;37.716;-122.060;2023-02-21T00:34:25;100128.01;;;23.27;19.31
51053;BME280;37093;37.716;-122.060;2023-02-21T00:36:53;100137.23;;;23.37;19.24
51053;BME280;37093;37.716;-122.060;2023-02-21T00:39:21;100140.87;;;23.31;20.50
51053;BME280;37093;37.716;-122.060;2023-02-21T00:41:50;100143.99;;;23.73;19.57
51053;BME280;37093;37.716;-122.060;2023-02-21T00:44:18;100144.36;;;23.53;19.30
51053;BME280;37093;37.716;-122.060;2023-02-21T00:46:47;100142.21;;;23.77;18.64
51053;BME280;37093;37.716;-122.060;2023-02-21T00:49:15;100145.19;;;23.29;19.02
51053;BME280;37093;37.716;-122.060;2023-02-21T00:51:43;100143.25;;;23.46;19.06
51053;BME280;37093;37.716;-122.060;2023-02-21T00:54:12;100144.21;;;23.44;20.49
51053;BME280;37093;37.716;-122.060;2023-02-21T00:56:41;100146.97;;;23.23;20.20
51053;BME280;37093;37.716;-122.060;2023-02-21T00:59:10;100149.90;;;23.52;19.62
51053;BME280;37093;37.716;-122.060;2023-02-21T01:01:39;100144.64;;;23.41;20.32
51053;BME280;37093;37.716;-122.060;2023-02-21T01:04:07;100141.80;;;23.31;19.86
51053;BME280;37093;37.716;-122.060;2023-02-21T01:06:35;100137.31;;;23.22;20.42
51053;BME280;37093;37.716;-122.060;2023-02-21T01:09:04;100136.36;;;23.19;21.13
51053;BME280;37093;37.716;-122.060;2023-02-21T01:11:32;100142.88;;;23.26;19.97
51053;BME280;37093;37.716;-122.060;2023-02-21T01:14:01;100141.99;;;23.11;21.43
51053;BME280;37093;37.716;-122.060;2023-02-21T01:16:30;100142.77;;;22.84;20.87
51053;BME280;37093;37.716;-122.060;2023-02-21T01:18:58;100146.81;;;23.25;21.64
51053;BME280;37093;37.716;-122.060;2023-02-21T01:21:27;100144.63;;;23.00;21.07
51053;BME280;37093;37.716;-122.060;2023-02-21T01:23:55;100144.13;;;22.94;21.59
51053;BME280;37093;37.716;-122.060;2023-02-21T01:26:23;100139.93;;;23.13;21.39
51053;BME280;37093;37.716;-122.060;2023-02-21T01:28:52;100140.90;;;23.08;21.57
51053;BME280;37093;37.716;-122.060;2023-02-21T01:31:21;100140.59;;;22.83;21.42
51053;BME280;37093;37.716;-122.060;2023-02-21T01:33:49;100132.59;;;23.00;21.68
51053;BME280;37093;37.716;-122.060;2023-02-21T01:36:18;100132.73;;;22.97;21.82
51053;BME280;37093;37.716;-122.060;2023-02-21T01:38:46;100131.83;;;22.90;21.83
51053;BME280;37093;37.716;-122.060;2023-02-21T01:41:14;100132.66;;;22.83;21.11
51053;BME280;37093;37.716;-122.060;2023-02-21T01:43:57;100128.22;;;22.92;21.96
51053;BME280;37093;37.716;-122.060;2023-02-21T01:46:26;100133.69;;;22.46;22.76
51053;BME280;37093;37.716;-122.060;2023-02-21T01:48:55;100136.77;;;22.42;23.02
51053;BME280;37093;37.716;-122.060;2023-02-21T01:51:30;100136.72;;;22.35;23.13
51053;BME280;37093;37.716;-122.060;2023-02-21T01:54:00;100133.59;;;22.30;23.46
51053;BME280;37093;37.716;-122.060;2023-02-21T01:56:29;100128.16;;;22.21;23.90
51053;BME280;37093;37.716;-122.060;2023-02-21T01:59:00;100129.78;;;22.18;23.91
51053;BME280;37093;37.716;-122.060;2023-02-21T02:01:34;100133.95;;;22.09;24.10
51053;BME280;37093;37.716;-122.060;2023-02-21T02:04:04;100137.13;;;22.27;24.10
51053;BME280;37093;37.716;-122.060;2023-02-21T02:06:32;100135.01;;;22.19;23.57
51053;BME280;37093;37.716;-122.060;2023-02-21T02:09:13;100131.57;;;22.30;23.60
51053;BME280;37093;37.716;-122.060;2023-02-21T02:11:56;100133.75;;;21.73;23.58
51053;BME280;37093;37.716;-122.060;2023-02-21T02:14:46;100135.91;;;22.17;23.89
51053;BME280;37093;37.716;-122.060;2023-02-21T02:17:24;100149.38;;;22.15;24.25
51053;BME280;37093;37.716;-122.060;2023-02-21T02:20:13;100155.82;;;22.07;24.26
51053;BME280;37093;37.716;-122.060;2023-02-21T02:23:06;100158.33;;;21.93;23.93
51053;BME280;37093;37.716;-122.060;2023-02-21T02:26:03;100150.72;;;21.72;24.49
51053;BME280;37093;37.716;-122.060;2023-02-21T02:28:50;100153.95;;;21.51;24.39
51053;BME280;37093;37.716;-122.060;2023-02-21T02:31:40;100146.87;;;21.30;24.57
51053;BME280;37093;37.716;-122.060;2023-02-21T02:34:53;100144.56;;;21.45;24.69
51053;BME280;37093;37.716;-122.060;2023-02-21T02:37:30;100142.06;;;21.29;24.79
51053;BME280;37093;37.716;-122.060;2023-02-21T02:40:06;100145.38;;;21.18;25.53
51053;BME280;37093;37.716;-122.060;2023-02-21T02:42:47;100146.05;;;20.90;25.48
51053;BME280;37093;37.716;-122.060;2023-02-21T02:45:32;100142.33;;;20.82;25.55
51053;BME280;37093;37.716;-122.060;2023-02-21T02:48:09;100134.97;;;20.87;25.67
51053;BME280;37093;37.716;-122.060;2023-02-21T02:50:43;100134.70;;;20.89;25.45
51053;BME280;37093;37.716;-122.060;2023-02-21T02:53:16;100137.77;;;21.02;25.56
51053;BME280;37093;37.716;-122.060;2023-02-21T02:55:48;100135.94;;;20.87;25.72
51053;BME280;37093;37.716;-122.060;2023-02-21T02:58:19;100136.67;;;20.49;26.25
51053;BME280;37093;37.716;-122.060;2023-02-21T03:01:06;100135.62;;;20.71;26.18
51053;BME280;37093;37.716;-122.060;2023-02-21T03:03:58;100132.03;;;20.67;26.38
51053;BME280;37093;37.716;-122.060;2023-02-21T03:06:43;100131.91;;;20.62;26.44
51053;BME280;37093;37.716;-122.060;2023-02-21T03:09:17;100134.34;;;20.18;26.73
51053;BME280;37093;37.716;-122.060;2023-02-21T03:11:57;100143.06;;;20.41;26.58
51053;BME280;37093;37.716;-122.060;2023-02-21T03:14:32;100149.32;;;20.33;26.74
51053;BME280;37093;37.716;-122.060;2023-02-21T03:17:05;100147.78;;;20.33;26.27
51053;BME280;37093;37.716;-122.060;2023-02-21T03:19:39;100146.45;;;20.24;26.17
51053;BME280;37093;37.716;-122.060;2023-02-21T03:22:10;100147.06;;;20.21;26.13
51053;BME280;37093;37.716;-122.060;2023-02-21T03:24:42;100147.19;;;20.03;26.73
51053;BME280;37093;37.716;-122.060;2023-02-21T03:27:12;100131.93;;;19.99;27.00
51053;BME280;37093;37.716;-122.060;2023-02-21T03:29:44;100130.69;;;19.93;26.85
51053;BME280;37093;37.716;-122.060;2023-02-21T03:32:17;100129.48;;;20.30;26.81
51053;BME280;37093;37.716;-122.060;2023-02-21T03:34:47;100126.32;;;19.91;27.41
51053;BME280;37093;37.716;-122.060;2023-02-21T03:37:29;100125.51;;;19.84;27.41
51053;BME280;37093;37.716;-122.060;2023-02-21T03:40:00;100120.00;;;19.64;27.58
51053;BME280;37093;37.716;-122.060;2023-02-21T03:42:28;100119.11;;;19.75;27.48
51053;BME280;37093;37.716;-122.060;2023-02-21T03:44:57;100120.40;;;19.75;27.63
51053;BME280;37093;37.716;-122.060;2023-02-21T03:47:25;100119.14;;;19.71;27.77
51053;BME280;37093;37.716;-122.060;2023-02-21T03:49:54;100120.24;;;19.38;27.72
51053;BME280;37093;37.716;-122.060;2023-02-21T03:52:22;100120.05;;;19.51;27.80
51053;BME280;37093;37.716;-122.060;2023-02-21T03:54:51;100122.68;;;19.13;28.32
51053;BME280;37093;37.716;-122.060;2023-02-21T03:57:19;100126.17;;;18.87;28.88
51053;BME280;37093;37.716;-122.060;2023-02-21T03:59:47;100128.08;;;19.04;28.67
51053;BME280;37093;37.716;-122.060;2023-02-21T04:02:16;100129.51;;;19.07;28.79
51053;BME280;37093;37.716;-122.060;2023-02-21T04:04:45;100123.32;;;18.98;29.09
51053;BME280;37093;37.716;-122.060;2023-02-21T04:07:13;100122.96;;;19.00;29.14
51053;BME280;37093;37.716;-122.060;2023-02-21T04:09:42;100120.36;;;18.60;29.73
51053;BME280;37093;37.716;-122.060;2023-02-21T04:12:10;100118.37;;;18.46;30.14
51053;BME280;37093;37.716;-122.060;2023-02-21T04:14:39;100127.66;;;18.47;30.39
51053;BME280;37093;37.716;-122.060;2023-02-21T04:17:07;100123.03;;;18.37;30.42
51053;BME280;37093;37.716;-122.060;2023-02-21T04:19:36;100120.90;;;18.25;30.73
51053;BME280;37093;37.716;-122.060;2023-02-21T04:22:04;100118.77;;;18.37;30.03
51053;BME280;37093;37.716;-122.060;2023-02-21T04:24:33;100119.52;;;18.19;29.85
51053;BME280;37093;37.716;-122.060;2023-02-21T04:27:02;100115.74;;;18.47;29.50
51053;BME280;37093;37.716;-122.060;2023-02-21T04:29:30;100124.21;;;18.53;29.20
51053;BME280;37093;37.716;-122.060;2023-02-21T04:31:59;100126.79;;;18.24;29.59
51053;BME280;37093;37.716;-122.060;2023-02-21T04:34:27;100114.96;;;18.32;29.85
51053;BME280;37093;37.716;-122.060;2023-02-21T04:36:56;100109.51;;;18.28;30.11
51053;BME280;37093;37.716;-122.060;2023-02-21T04:39:24;100111.43;;;18.19;30.33
51053;BME280;37093;37.716;-122.060;2023-02-21T04:41:54;100116.32;;;17.96;30.31
51053;BME280;37093;37.716;-122.060;2023-02-21T04:44:22;100109.52;;;17.95;30.47
51053;BME280;37093;37.716;-122.060;2023-02-21T04:46:50;100110.97;;;17.92;30.84
51053;BME280;37093;37.716;-122.060;2023-02-21T04:49:19;100112.57;;;17.64;30.72
51053;BME280;37093;37.716;-122.060;2023-02-21T04:51:47;100111.91;;;17.89;30.73
51053;BME280;37093;37.716;-122.060;2023-02-21T04:54:16;100106.94;;;17.88;30.55
51053;BME280;37093;37.716;-122.060;2023-02-21T04:56:44;100103.30;;;17.88;30.63
51053;BME280;37093;37.716;-122.060;2023-02-21T04:59:13;100102.01;;;17.79;30.64
51053;BME280;37093;37.716;-122.060;2023-02-21T05:01:42;100095.43;;;17.83;30.80
51053;BME280;37093;37.716;-122.060;2023-02-21T05:04:10;100088.25;;;17.88;30.72
51053;BME280;37093;37.716;-122.060;2023-02-21T05:06:40;100081.35;;;17.70;30.79
51053;BME280;37093;37.716;-122.060;2023-02-21T05:09:09;100081.31;;;17.87;30.83
51053;BME280;37093;37.716;-122.060;2023-02-21T05:11:36;100084.89;;;17.85;30.42
51053;BME280;37093;37.716;-122.060;2023-02-21T05:14:05;100087.05;;;17.74;30.65
51053;BME280;37093;37.716;-122.060;2023-02-21T05:16:34;100089.89;;;17.93;30.58
51053;BME280;37093;37.716;-122.060;2023-02-21T05:19:02;100090.82;;;17.51;30.83
51053;BME280;37093;37.716;-122.060;2023-02-21T05:21:34;100091.12;;;17.57;31.23
51053;BME280;37093;37.716;-122.060;2023-02-21T05:24:02;100088.99;;;16.94;31.75
51053;BME280;37093;37.716;-122.060;2023-02-21T05:26:35;100087.37;;;17.24;31.31
51053;BME280;37093;37.716;-122.060;2023-02-21T05:29:04;100085.83;;;16.93;31.82
51053;BME280;37093;37.716;-122.060;2023-02-21T05:31:32;100083.68;;;17.28;31.47
51053;BME280;37093;37.716;-122.060;2023-02-21T05:34:01;100074.92;;;17.28;31.58
51053;BME280;37093;37.716;-122.060;2023-02-21T05:36:29;100074.08;;;17.27;31.77
51053;BME280;37093;37.716;-122.060;2023-02-21T05:38:58;100074.84;;;17.26;31.52
51053;BME280;37093;37.716;-122.060;2023-02-21T05:41:27;100081.30;;;16.95;31.68
51053;BME280;37093;37.716;-122.060;2023-02-21T05:43:55;100080.81;;;16.88;31.21
51053;BME280;37093;37.716;-122.060;2023-02-21T05:46:26;100078.86;;;17.09;30.60
51053;BME280;37093;37.716;-122.060;2023-02-21T05:48:56;100077.55;;;16.43;30.53
51053;BME280;37093;37.716;-122.060;2023-02-21T05:51:25;100067.28;;;17.22;30.20
51053;BME280;37093;37.716;-122.060;2023-02-21T05:53:54;100061.75;;;17.09;31.04
51053;BME280;37093;37.716;-122.060;2023-02-21T05:56:22;100061.71;;;16.80;31.63
51053;BME280;37093;37.716;-122.060;2023-02-21T05:58:51;100062.48;;;16.74;31.52
51053;BME280;37093;37.716;-122.060;2023-02-21T06:01:20;100058.37;;;17.07;31.26
51053;BME280;37093;37.716;-122.060;2023-02-21T06:03:48;100058.81;;;16.89;31.34
51053;BME280;37093;37.716;-122.060;2023-02-21T06:06:17;100055.82;;;16.89;31.54
51053;BME280;37093;37.716;-122.060;2023-02-21T06:08:47;100052.64;;;16.87;31.60
51053;BME280;37093;37.716;-122.060;2023-02-21T06:11:22;100055.32;;;16.78;31.98
51053;BME280;37093;37.716;-122.060;2023-02-21T06:13:52;100056.81;;;16.88;32.17
51053;BME280;37093;37.716;-122.060;2023-02-21T06:16:21;100053.07;;;16.61;32.16
51053;BME280;37093;37.716;-122.060;2023-02-21T06:18:50;100045.02;;;16.78;32.20
51053;BME280;37093;37.716;-122.060;2023-02-21T06:21:19;100038.56;;;16.55;32.42
51053;BME280;37093;37.716;-122.060;2023-02-21T06:23:47;100035.92;;;16.30;32.82
51053;BME280;37093;37.716;-122.060;2023-02-21T06:26:17;100036.80;;;16.17;33.43
51053;BME280;37093;37.716;-122.060;2023-02-21T06:28:47;100038.24;;;16.29;33.10
51053;BME280;37093;37.716;-122.060;2023-02-21T06:31:16;100041.51;;;16.13;32.94
51053;BME280;37093;37.716;-122.060;2023-02-21T06:33:45;100042.01;;;16.39;32.67
51053;BME280;37093;37.716;-122.060;2023-02-21T06:36:16;100044.62;;;16.20;32.71
51053;BME280;37093;37.716;-122.060;2023-02-21T06:38:45;100051.04;;;16.31;31.84
51053;BME280;37093;37.716;-122.060;2023-02-21T06:41:16;100052.56;;;16.31;32.00
51053;BME280;37093;37.716;-122.060;2023-02-21T06:43:44;100051.13;;;16.40;31.93
51053;BME280;37093;37.716;-122.060;2023-02-21T06:46:16;100051.15;;;16.42;31.80
51053;BME280;37093;37.716;-122.060;2023-02-21T06:48:44;100041.93;;;16.68;31.80
51053;BME280;37093;37.716;-122.060;2023-02-21T06:51:13;100037.50;;;16.28;32.33
51053;BME280;37093;37.716;-122.060;2023-02-21T06:53:43;100040.03;;;16.26;32.13
51053;BME280;37093;37.716;-122.060;2023-02-21T06:56:11;100038.73;;;16.24;32.08
51053;BME280;37093;37.716;-122.060;2023-02-21T06:58:40;100042.20;;;16.17;32.22
51053;BME280;37093;37.716;-122.060;2023-02-21T07:01:08;100037.91;;;16.07;32.04
51053;BME280;37093;37.716;-122.060;2023-02-21T07:03:39;100030.14;;;16.23;32.06
51053;BME280;37093;37.716;-122.060;2023-02-21T07:06:07;100027.91;;;16.33;31.27
51053;BME280;37093;37.716;-122.060;2023-02-21T07:08:36;100025.56;;;16.35;31.71
51053;BME280;37093;37.716;-122.060;2023-02-21T07:11:05;100024.97;;;16.31;31.00
51053;BME280;37093;37.716;-122.060;2023-02-21T07:13:34;100019.52;;;16.45;31.67
51053;BME280;37093;37.716;-122.060;2023-02-21T07:16:03;100010.96;;;16.25;31.42
51053;BME280;37093;37.716;-122.060;2023-02-21T07:18:33;100002.89;;;16.54;31.99
51053;BME280;37093;37.716;-122.060;2023-02-21T07:21:01;100003.76;;;15.94;32.21
51053;BME280;37093;37.716;-122.060;2023-02-21T07:23:29;100003.61;;;16.16;32.64
51053;BME280;37093;37.716;-122.060;2023-02-21T07:25:58;100000.67;;;15.88;32.79
51053;BME280;37093;37.716;-122.060;2023-02-21T07:28:26;99990.53;;;15.95;32.80
51053;BME280;37093;37.716;-122.060;2023-02-21T07:30:55;99977.56;;;15.83;32.91
51053;BME280;37093;37.716;-122.060;2023-02-21T07:33:23;99970.47;;;15.83;33.09
51053;BME280;37093;37.716;-122.060;2023-02-21T07:35:52;99967.81;;;15.83;32.66
51053;BME280;37093;37.716;-122.060;2023-02-21T07:38:22;99975.79;;;15.46;32.44
51053;BME280;37093;37.716;-122.060;2023-02-21T07:40:54;99968.24;;;15.48;32.75
51053;BME280;37093;37.716;-122.060;2023-02-21T07:43:23;99963.86;;;15.95;33.09
51053;BME280;37093;37.716;-122.060;2023-02-21T07:45:52;99956.19;;;16.06;32.74
51053;BME280;37093;37.716;-122.060;2023-02-21T07:48:21;99956.35;;;15.71;32.38
51053;BME280;37093;37.716;-122.060;2023-02-21T07:50:49;99952.37;;;15.67;32.75
51053;BME280;37093;37.716;-122.060;2023-02-21T07:53:18;99949.37;;;15.62;32.87
51053;BME280;37093;37.716;-122.060;2023-02-21T07:55:46;99943.53;;;15.63;32.49
51053;BME280;37093;37.716;-122.060;2023-02-21T07:58:15;99937.78;;;15.94;32.25
51053;BME280;37093;37.716;-122.060;2023-02-21T08:01:10;99927.27;;;14.90;32.76
51053;BME280;37093;37.716;-122.060;2023-02-21T08:03:39;99922.46;;;14.92;31.78
51053;BME280;37093;37.716;-122.060;2023-02-21T08:06:08;99916.73;;;16.64;30.62
51053;BME280;37093;37.716;-122.060;2023-02-21T08:08:36;99915.79;;;16.61;30.48
51053;BME280;37093;37.716;-122.060;2023-02-21T08:11:06;99906.27;;;16.43;31.66
51053;BME280;37093;37.716;-122.060;2023-02-21T08:13:35;99903.29;;;16.36;32.16
51053;BME280;37093;37.716;-122.060;2023-02-21T08:16:03;99896.44;;;15.67;32.62
51053;BME280;37093;37.716;-122.060;2023-02-21T08:18:32;99902.29;;;15.60;32.39
51053;BME280;37093;37.716;-122.060;2023-02-21T08:21:01;99905.62;;;15.32;32.37
51053;BME280;37093;37.716;-122.060;2023-02-21T08:23:29;99895.36;;;15.69;32.01
51053;BME280;37093;37.716;-122.060;2023-02-21T08:25:58;99891.68;;;15.67;32.48
51053;BME280;37093;37.716;-122.060;2023-02-21T08:28:27;99886.82;;;15.58;32.86
51053;BME280;37093;37.716;-122.060;2023-02-21T08:30:55;99886.45;;;15.58;32.42
51053;BME280;37093;37.716;-122.060;2023-02-21T08:33:24;99876.27;;;15.27;32.57
51053;BME280;37093;37.716;-122.060;2023-02-21T08:35:52;99867.22;;;15.30;32.70
51053;BME280;37093;37.716;-122.060;2023-02-21T08:38:21;99858.18;;;15.32;32.81
51053;BME280;37093;37.716;-122.060;2023-02-21T08:40:50;99861.71;;;15.55;32.55
51053;BME280;37093;37.716;-122.060;2023-02-21T08:43:18;99864.71;;;15.24;32.39
51053;BME280;37093;37.716;-122.060;2023-02-21T08:45:47;99861.26;;;14.88;32.51
51053;BME280;37093;37.716;-122.060;2023-02-21T08:48:17;99859.45;;;15.35;32.65
51053;BME280;37093;37.716;-122.060;2023-02-21T08:50:45;99846.74;;;15.10;32.92
51053;BME280;37093;37.716;-122.060;2023-02-21T08:53:14;99845.93;;;15.23;32.69
51053;BME280;37093;37.716;-122.060;2023-02-21T08:55:42;99846.19;;;15.40;32.93
51053;BME280;37093;37.716;-122.060;2023-02-21T08:58:11;99851.65;;;15.45;32.82
51053;BME280;37093;37.716;-122.060;2023-02-21T09:00:39;99856.96;;;15.11;32.98
51053;BME280;37093;37.716;-122.060;2023-02-21T09:03:08;99855.15;;;15.38;32.77
51053;BME280;37093;37.716;-122.060;2023-02-21T09:05:37;99860.69;;;15.32;32.76
51053;BME280;37093;37.716;-122.060;2023-02-21T09:08:05;99855.86;;;15.26;32.83
51053;BME280;37093;37.716;-122.060;2023-02-21T09:10:34;99852.22;;;15.00;32.37
51053;BME280;37093;37.716;-122.060;2023-02-21T09:13:03;99857.09;;;15.19;32.26
51053;BME280;37093;37.716;-122.060;2023-02-21T09:15:32;99862.56;;;15.03;32.29
51053;BME280;37093;37.716;-122.060;2023-02-21T09:18:00;99867.67;;;15.31;32.35
51053;BME280;37093;37.716;-122.060;2023-02-21T09:20:29;99875.93;;;14.97;31.69
51053;BME280;37093;37.716;-122.060;2023-02-21T09:22:57;99881.66;;;15.27;31.79
51053;BME280;37093;37.716;-122.060;2023-02-21T09:25:26;99885.56;;;15.15;32.26
51053;BME280;37093;37.716;-122.060;2023-02-21T09:27:55;99884.72;;;15.11;31.94
51053;BME280;37093;37.716;-122.060;2023-02-21T09:30:25;99886.44;;;15.03;32.23
51053;BME280;37093;37.716;-122.060;2023-02-21T09:32:53;99882.18;;;15.10;32.09
51053;BME280;37093;37.716;-122.060;2023-02-21T09:35:22;99870.04;;;15.02;31.82
51053;BME280;37093;37.716;-122.060;2023-02-21T09:37:50;99861.66;;;14.96;32.19
51053;BME280;37093;37.716;-122.060;2023-02-21T09:40:31;99865.74;;;14.86;32.40
51053;BME280;37093;37.716;-122.060;2023-02-21T09:43:03;99853.52;;;14.68;32.76
51053;BME280;37093;37.716;-122.060;2023-02-21T09:45:34;99846.74;;;14.75;33.41
51053;BME280;37093;37.716;-122.060;2023-02-21T09:48:07;99846.26;;;14.77;34.05
51053;BME280;37093;37.716;-122.060;2023-02-21T09:50:42;99850.33;;;14.82;34.49
51053;BME280;37093;37.716;-122.060;2023-02-21T09:53:15;99856.39;;;14.89;34.64
51053;BME280;37093;37.716;-122.060;2023-02-21T09:55:46;99849.40;;;14.90;35.57
51053;BME280;37093;37.716;-122.060;2023-02-21T09:58:18;99850.49;;;14.89;35.87
51053;BME280;37093;37.716;-122.060;2023-02-21T10:00:47;99842.48;;;14.91;36.27
51053;BME280;37093;37.716;-122.060;2023-02-21T10:03:27;99838.30;;;14.89;36.17
51053;BME280;37093;37.716;-122.060;2023-02-21T10:06:07;99832.41;;;14.78;35.91
51053;BME280;37093;37.716;-122.060;2023-02-21T10:08:43;99828.71;;;14.80;36.02
51053;BME280;37093;37.716;-122.060;2023-02-21T10:11:24;99827.74;;;15.03;35.53
51053;BME280;37093;37.716;-122.060;2023-02-21T10:13:59;99819.19;;;14.97;35.58
51053;BME280;37093;37.716;-122.060;2023-02-21T10:16:34;99809.20;;;14.67;35.71
51053;BME280;37093;37.716;-122.060;2023-02-21T10:19:09;99801.52;;;14.65;35.36
51053;BME280;37093;37.716;-122.060;2023-02-21T10:21:43;99786.71;;;15.14;35.31
51053;BME280;37093;37.716;-122.060;2023-02-21T10:24:15;99785.52;;;15.00;35.45
51053;BME280;37093;37.716;-122.060;2023-02-21T10:26:47;99781.03;;;14.73;35.06
51053;BME280;37093;37.716;-122.060;2023-02-21T10:29:22;99774.01;;;14.49;35.14
51053;BME280;37093;37.716;-122.060;2023-02-21T10:31:54;99768.12;;;14.47;35.22
51053;BME280;37093;37.716;-122.060;2023-02-21T10:34:26;99761.72;;;14.63;35.59
51053;BME280;37093;37.716;-122.060;2023-02-21T10:36:56;99758.00;;;14.52;35.57
51053;BME280;37093;37.716;-122.060;2023-02-21T10:39:31;99765.69;;;14.62;36.10
51053;BME280;37093;37.716;-122.060;2023-02-21T10:42:01;99768.68;;;14.47;36.06
51053;BME280;37093;37.716;-122.060;2023-02-21T10:44:33;99762.90;;;14.72;36.85
51053;BME280;37093;37.716;-122.060;2023-02-21T10:47:12;99756.78;;;14.65;36.76
51053;BME280;37093;37.716;-122.060;2023-02-21T10:49:49;99756.77;;;14.67;36.77
51053;BME280;37093;37.716;-122.060;2023-02-21T10:52:20;99754.23;;;14.17;36.40
51053;BME280;37093;37.716;-122.060;2023-02-21T10:55:06;99753.43;;;14.66;36.51
51053;BME280;37093;37.716;-122.060;2023-02-21T10:57:40;99739.91;;;14.36;36.85
51053;BME280;37093;37.716;-122.060;2023-02-21T11:00:22;99729.41;;;14.35;36.99
51053;BME280;37093;37.716;-122.060;2023-02-21T11:02:55;99726.25;;;14.33;36.93
51053;BME280;37093;37.716;-122.060;2023-02-21T11:05:24;99720.11;;;14.33;36.92
51053;BME280;37093;37.716;-122.060;2023-02-21T11:07:58;99720.03;;;14.59;37.17
51053;BME280;37093;37.716;-122.060;2023-02-21T11:10:30;99718.83;;;14.55;37.37
51053;BME280;37093;37.716;-122.060;2023-02-21T11:13:12;99717.60;;;14.12;37.37
51053;BME280;37093;37.716;-122.060;2023-02-21T11:15:42;99710.48;;;14.36;37.21
51053;BME280;37093;37.716;-122.060;2023-02-21T11:18:15;99701.64;;;14.41;36.82
51053;BME280;37093;37.716;-122.060;2023-02-21T11:20:44;99700.71;;;14.65;37.37
51053;BME280;37093;37.716;-122.060;2023-02-21T11:23:23;99701.75;;;14.59;37.73
51053;BME280;37093;37.716;-122.060;2023-02-21T11:25:58;99690.11;;;14.61;37.32
51053;BME280;37093;37.716;-122.060;2023-02-21T11:28:27;99684.48;;;14.65;37.17
51053;BME280;37093;37.716;-122.060;2023-02-21T11:31:10;99687.23;;;14.57;37.57
51053;BME280;37093;37.716;-122.060;2023-02-21T11:33:44;99688.76;;;14.41;37.67
51053;BME280;37093;37.716;-122.060;2023-02-21T11:36:17;99690.01;;;14.40;37.71
51053;BME280;37093;37.716;-122.060;2023-02-21T11:39:00;99684.65;;;14.38;37.85
51053;BME280;37093;37.716;-122.060;2023-02-21T11:41:34;99675.90;;;13.94;38.59
51053;BME280;37093;37.716;-122.060;2023-02-21T11:44:17;99669.64;;;13.90;38.33
51053;BME280;37093;37.716;-122.060;2023-02-21T11:46:54;99668.70;;;14.17;38.27
51053;BME280;37093;37.716;-122.060;2023-02-21T11:49:40;99672.72;;;14.21;38.11
51053;BME280;37093;37.716;-122.060;2023-02-21T11:52:13;99677.10;;;14.27;37.97
51053;BME280;37093;37.716;-122.060;2023-02-21T11:54:44;99675.32;;;14.28;38.10
51053;BME280;37093;37.716;-122.060;2023-02-21T11:57:19;99673.05;;;14.30;38.10
51053;BME280;37093;37.716;-122.060;2023-02-21T11:59:55;99667.06;;;14.28;37.87
51053;BME280;37093;37.716;-122.060;2023-02-21T12:02:41;99664.06;;;14.32;38.08
51053;BME280;37093;37.716;-122.060;2023-02-21T12:05:26;99665.43;;;13.99;38.34
51053;BME280;37093;37.716;-122.060;2023-02-21T12:08:12;99663.28;;;14.46;38.47
51053;BME280;37093;37.716;-122.060;2023-02-21T12:10:49;99659.76;;;14.03;38.77
51053;BME280;37093;37.716;-122.060;2023-02-21T12:13:28;99653.90;;;14.01;38.61
51053;BME280;37093;37.716;-122.060;2023-02-21T12:16:06;99654.97;;;13.97;38.65
51053;BME280;37093;37.716;-122.060;2023-02-21T12:18:49;99650.54;;;14.19;38.60
51053;BME280;37093;37.716;-122.060;2023-02-21T12:21:34;99657.79;;;14.14;38.54
51053;BME280;37093;37.716;-122.060;2023-02-21T12:24:18;99663.87;;;13.96;38.52
51053;BME280;37093;37.716;-122.060;2023-02-21T12:26:55;99659.91;;;14.21;38.34
51053;BME280;37093;37.716;-122.060;2023-02-21T12:29:45;99655.07;;;14.09;38.74
51053;BME280;37093;37.716;-122.060;2023-02-21T12:32:34;99653.83;;;13.91;38.44
51053;BME280;37093;37.716;-122.060;2023-02-21T12:35:35;99661.42;;;13.88;38.47
51053;BME280;37093;37.716;-122.060;2023-02-21T12:38:11;99663.85;;;13.91;38.26
51053;BME280;37093;37.716;-122.060;2023-02-21T12:40:49;99663.60;;;14.12;38.22
51053;BME280;37093;37.716;-122.060;2023-02-21T12:43:35;99659.80;;;13.89;37.85
51053;BME280;37093;37.716;-122.060;2023-02-21T12:46:12;99656.23;;;13.70;38.29
51053;BME280;37093;37.716;-122.060;2023-02-21T12:48:50;99660.16;;;14.22;38.31
51053;BME280;37093;37.716;-122.060;2023-02-21T12:51:24;99652.61;;;13.72;38.61